sensor_id;sensor_type;location;lat;lon;timestamp;P1;durP1;ratioP1;P2;durP2;ratioP2
44508;SDS011;30214;52.246;14.408;2022-12-31T00:01:13;4.35;;;1.80;;
44508;SDS011;30214;52.246;14.408;2022-12-31T00:03:41;4.68;;;1.98;;
44508;SDS011;30214;52.246;14.408;2022-12-31T00:06:14;4.03;;;1.48;;
44508;SDS011;30214;52.246;14.408;2022-12-31T00:08:47;4.57;;;1.88;;
44508;SDS011;30214;52.246;14.408;2022-12-31T00:11:15;4.20;;;1.80;;
44508;SDS011;30214;52.246;14.408;2022-12-31T00:13:44;3.65;;;1.58;;
44508;SDS011;30214;52.246;14.408;2022-12-31T00:16:12;4.25;;;1.75;;
44508;SDS011;30214;52.246;14.408;2022-12-31T00:18:42;4.07;;;1.80;;
44508;SDS011;30214;52.246;14.408;2022-12-31T00:21:10;5.32;;;1.58;;
44508;SDS011;30214;52.246;14.408;2022-12-31T00:23:38;3.20;;;1.75;;
44508;SDS011;30214;52.246;14.408;2022-12-31T00:26:08;4.40;;;1.73;;
44508;SDS011;30214;52.246;14.408;2022-12-31T00:28:38;3.65;;;1.75;;
44508;SDS011;30214;52.246;14.408;2022-12-31T00:31:06;3.10;;;1.52;;
44508;SDS011;30214;52.246;14.408;2022-12-31T00:33:36;5.22;;;1.77;;
44508;SDS011;30214;52.246;14.408;2022-12-31T00:36:06;3.92;;;1.60;;
44508;SDS011;30214;52.246;14.408;2022-12-31T00:38:36;3.63;;;1.85;;
44508;SDS011;30214;52.246;14.408;2022-12-31T00:41:04;4.93;;;1.80;;
44508;SDS011;30214;52.246;14.408;2022-12-31T00:43:33;2.78;;;1.27;;
44508;SDS011;30214;52.246;14.408;2022-12-31T00:46:01;3.65;;;1.70;;
44508;SDS011;30214;52.246;14.408;2022-12-31T00:48:30;3.53;;;1.70;;
44508;SDS011;30214;52.246;14.408;2022-12-31T00:50:58;3.65;;;1.73;;
44508;SDS011;30214;52.246;14.408;2022-12-31T00:53:26;3.88;;;1.60;;
44508;SDS011;30214;52.246;14.408;2022-12-31T00:55:58;4.07;;;1.80;;
44508;SDS011;30214;52.246;14.408;2022-12-31T00:58:26;4.50;;;1.70;;
44508;SDS011;30214;52.246;14.408;2022-12-31T01:00:55;5.00;;;1.70;;
44508;SDS011;30214;52.246;14.408;2022-12-31T01:03:22;4.03;;;1.55;;
44508;SDS011;30214;52.246;14.408;2022-12-31T01:05:51;3.83;;;1.60;;
44508;SDS011;30214;52.246;14.408;2022-12-31T01:08:23;4.82;;;1.65;;
44508;SDS011;30214;52.246;14.408;2022-12-31T01:10:52;4.07;;;1.33;;
44508;SDS011;30214;52.246;14.408;2022-12-31T01:13:36;3.05;;;1.40;;
44508;SDS011;30214;52.246;14.408;2022-12-31T01:16:09;3.63;;;1.42;;
44508;SDS011;30214;52.246;14.408;2022-12-31T01:18:37;3.17;;;1.48;;
44508;SDS011;30214;52.246;14.408;2022-12-31T01:21:06;3.38;;;1.40;;
44508;SDS011;30214;52.246;14.408;2022-12-31T01:23:36;3.45;;;1.27;;
44508;SDS011;30214;52.246;14.408;2022-12-31T01:26:05;3.72;;;1.58;;
44508;SDS011;30214;52.246;14.408;2022-12-31T01:28:34;3.58;;;1.42;;
44508;SDS011;30214;52.246;14.408;2022-12-31T01:31:03;2.60;;;1.33;;
44508;SDS011;30214;52.246;14.408;2022-12-31T01:33:32;2.30;;;1.40;;
44508;SDS011;30214;52.246;14.408;2022-12-31T01:36:00;3.47;;;1.63;;
44508;SDS011;30214;52.246;14.408;2022-12-31T01:38:28;2.40;;;1.45;;
44508;SDS011;30214;52.246;14.408;2022-12-31T01:40:56;3.63;;;1.20;;
44508;SDS011;30214;52.246;14.408;2022-12-31T01:46:17;2.65;;;1.40;;
44508;SDS011;30214;52.246;14.408;2022-12-31T01:48:53;3.10;;;1.38;;
44508;SDS011;30214;52.246;14.408;2022-12-31T01:51:24;4.45;;;1.63;;
44508;SDS011;30214;52.246;14.408;2022-12-31T01:53:57;3.47;;;1.50;;
44508;SDS011;30214;52.246;14.408;2022-12-31T01:56:25;2.40;;;1.33;;
44508;SDS011;30214;52.246;14.408;2022-12-31T01:58:53;3.53;;;1.33;;
44508;SDS011;30214;52.246;14.408;2022-12-31T02:01:24;2.92;;;1.50;;
44508;SDS011;30214;52.246;14.408;2022-12-31T02:03:57;2.40;;;1.27;;
44508;SDS011;30214;52.246;14.408;2022-12-31T02:06:32;2.92;;;1.50;;
44508;SDS011;30214;52.246;14.408;2022-12-31T02:09:04;3.30;;;1.30;;
44508;SDS011;30214;52.246;14.408;2022-12-31T02:11:32;2.55;;;1.10;;
44508;SDS011;30214;52.246;14.408;2022-12-31T02:14:02;3.00;;;1.10;;
44508;SDS011;30214;52.246;14.408;2022-12-31T02:16:33;2.55;;;1.30;;
44508;SDS011;30214;52.246;14.408;2022-12-31T02:19:16;2.95;;;1.30;;
44508;SDS011;30214;52.246;14.408;2022-12-31T02:22:21;2.20;;;1.20;;
44508;SDS011;30214;52.246;14.408;2022-12-31T02:25:15;3.10;;;1.10;;
44508;SDS011;30214;52.246;14.408;2022-12-31T02:28:13;2.25;;;1.20;;
44508;SDS011;30214;52.246;14.408;2022-12-31T02:30:51;2.85;;;1.33;;
44508;SDS011;30214;52.246;14.408;2022-12-31T02:33:26;2.47;;;1.20;;
44508;SDS011;30214;52.246;14.408;2022-12-31T02:35:59;1.90;;;1.00;;
44508;SDS011;30214;52.246;14.408;2022-12-31T02:38:31;2.15;;;1.13;;
44508;SDS011;30214;52.246;14.408;2022-12-31T02:41:02;2.85;;;1.10;;
44508;SDS011;30214;52.246;14.408;2022-12-31T02:43:29;2.03;;;1.20;;
44508;SDS011;30214;52.246;14.408;2022-12-31T02:46:00;7.75;;;1.10;;
44508;SDS011;30214;52.246;14.408;2022-12-31T02:48:39;2.00;;;1.00;;
44508;SDS011;30214;52.246;14.408;2022-12-31T02:51:19;2.58;;;1.00;;
44508;SDS011;30214;52.246;14.408;2022-12-31T02:54:10;2.38;;;1.00;;
44508;SDS011;30214;52.246;14.408;2022-12-31T02:56:50;2.10;;;0.80;;
44508;SDS011;30214;52.246;14.408;2022-12-31T02:59:36;2.55;;;1.00;;
44508;SDS011;30214;52.246;14.408;2022-12-31T03:02:27;1.80;;;0.80;;
44508;SDS011;30214;52.246;14.408;2022-12-31T03:04:57;2.35;;;1.00;;
44508;SDS011;30214;52.246;14.408;2022-12-31T03:07:29;1.70;;;0.80;;
44508;SDS011;30214;52.246;14.408;2022-12-31T03:09:58;1.55;;;0.80;;
44508;SDS011;30214;52.246;14.408;2022-12-31T03:12:27;0.73;;;0.52;;
44508;SDS011;30214;52.246;14.408;2022-12-31T03:15:11;2.97;;;0.90;;
44508;SDS011;30214;52.246;14.408;2022-12-31T03:17:49;2.08;;;0.60;;
44508;SDS011;30214;52.246;14.408;2022-12-31T03:20:24;1.85;;;0.82;;
44508;SDS011;30214;52.246;14.408;2022-12-31T03:23:13;1.48;;;0.68;;
44508;SDS011;30214;52.246;14.408;2022-12-31T03:25:44;1.33;;;0.70;;
44508;SDS011;30214;52.246;14.408;2022-12-31T03:28:11;1.10;;;0.70;;
44508;SDS011;30214;52.246;14.408;2022-12-31T03:30:41;2.38;;;0.80;;
44508;SDS011;30214;52.246;14.408;2022-12-31T03:33:12;1.02;;;0.60;;
44508;SDS011;30214;52.246;14.408;2022-12-31T03:35:41;1.90;;;0.73;;
44508;SDS011;30214;52.246;14.408;2022-12-31T03:38:10;1.38;;;0.80;;
44508;SDS011;30214;52.246;14.408;2022-12-31T03:40:38;1.20;;;0.70;;
44508;SDS011;30214;52.246;14.408;2022-12-31T03:43:07;1.60;;;0.75;;
44508;SDS011;30214;52.246;14.408;2022-12-31T03:45:35;1.27;;;0.60;;
44508;SDS011;30214;52.246;14.408;2022-12-31T03:48:03;1.30;;;0.70;;
44508;SDS011;30214;52.246;14.408;2022-12-31T03:50:34;1.42;;;0.70;;
44508;SDS011;30214;52.246;14.408;2022-12-31T03:53:02;1.73;;;0.70;;
44508;SDS011;30214;52.246;14.408;2022-12-31T03:55:29;1.42;;;0.70;;
44508;SDS011;30214;52.246;14.408;2022-12-31T03:57:56;1.40;;;0.70;;
44508;SDS011;30214;52.246;14.408;2022-12-31T04:00:23;2.00;;;0.65;;
44508;SDS011;30214;52.246;14.408;2022-12-31T04:02:50;1.00;;;0.63;;
44508;SDS011;30214;52.246;14.408;2022-12-31T04:05:18;1.40;;;0.70;;
44508;SDS011;30214;52.246;14.408;2022-12-31T04:07:47;1.65;;;0.70;;
44508;SDS011;30214;52.246;14.408;2022-12-31T04:10:17;3.60;;;0.80;;
44508;SDS011;30214;52.246;14.408;2022-12-31T04:12:45;1.33;;;0.70;;
44508;SDS011;30214;52.246;14.408;2022-12-31T04:15:14;0.73;;;0.60;;
44508;SDS011;30214;52.246;14.408;2022-12-31T04:17:43;1.15;;;0.70;;
44508;SDS011;30214;52.246;14.408;2022-12-31T04:20:10;1.23;;;0.75;;
44508;SDS011;30214;52.246;14.408;2022-12-31T04:22:38;1.58;;;0.80;;
44508;SDS011;30214;52.246;14.408;2022-12-31T04:25:07;1.45;;;0.85;;
44508;SDS011;30214;52.246;14.408;2022-12-31T04:27:37;1.58;;;0.70;;
44508;SDS011;30214;52.246;14.408;2022-12-31T04:30:07;1.52;;;0.80;;
44508;SDS011;30214;52.246;14.408;2022-12-31T04:32:36;1.70;;;0.70;;
44508;SDS011;30214;52.246;14.408;2022-12-31T04:35:07;1.55;;;0.70;;
44508;SDS011;30214;52.246;14.408;2022-12-31T04:37:36;2.05;;;0.80;;
44508;SDS011;30214;52.246;14.408;2022-12-31T04:40:04;2.13;;;0.93;;
44508;SDS011;30214;52.246;14.408;2022-12-31T04:42:34;2.80;;;0.80;;
44508;SDS011;30214;52.246;14.408;2022-12-31T04:45:02;1.30;;;0.70;;
44508;SDS011;30214;52.246;14.408;2022-12-31T04:47:30;0.63;;;0.47;;
44508;SDS011;30214;52.246;14.408;2022-12-31T04:49:57;1.13;;;0.60;;
44508;SDS011;30214;52.246;14.408;2022-12-31T04:52:24;1.38;;;0.70;;
44508;SDS011;30214;52.246;14.408;2022-12-31T04:54:51;1.42;;;0.88;;
44508;SDS011;30214;52.246;14.408;2022-12-31T04:57:19;0.80;;;0.60;;
44508;SDS011;30214;52.246;14.408;2022-12-31T04:59:46;1.65;;;1.00;;
44508;SDS011;30214;52.246;14.408;2022-12-31T05:02:13;0.95;;;0.57;;
44508;SDS011;30214;52.246;14.408;2022-12-31T05:04:42;1.02;;;0.52;;
44508;SDS011;30214;52.246;14.408;2022-12-31T05:07:09;1.23;;;0.60;;
44508;SDS011;30214;52.246;14.408;2022-12-31T05:09:36;1.00;;;0.60;;
44508;SDS011;30214;52.246;14.408;2022-12-31T05:12:03;1.60;;;0.70;;
44508;SDS011;30214;52.246;14.408;2022-12-31T05:14:32;1.08;;;0.65;;
44508;SDS011;30214;52.246;14.408;2022-12-31T05:16:59;1.90;;;0.50;;
44508;SDS011;30214;52.246;14.408;2022-12-31T05:19:26;1.15;;;0.70;;
44508;SDS011;30214;52.246;14.408;2022-12-31T05:21:53;0.82;;;0.50;;
44508;SDS011;30214;52.246;14.408;2022-12-31T05:24:53;1.33;;;0.60;;
44508;SDS011;30214;52.246;14.408;2022-12-31T05:27:20;1.10;;;0.60;;
44508;SDS011;30214;52.246;14.408;2022-12-31T05:29:48;0.70;;;0.50;;
44508;SDS011;30214;52.246;14.408;2022-12-31T05:32:15;1.80;;;0.50;;
44508;SDS011;30214;52.246;14.408;2022-12-31T05:34:43;1.20;;;0.47;;
44508;SDS011;30214;52.246;14.408;2022-12-31T05:37:10;1.20;;;0.57;;
44508;SDS011;30214;52.246;14.408;2022-12-31T05:39:37;2.55;;;0.85;;
44508;SDS011;30214;52.246;14.408;2022-12-31T05:42:04;2.17;;;0.68;;
44508;SDS011;30214;52.246;14.408;2022-12-31T05:44:31;0.82;;;0.60;;
44508;SDS011;30214;52.246;14.408;2022-12-31T05:47:00;2.70;;;0.70;;
44508;SDS011;30214;52.246;14.408;2022-12-31T05:49:27;1.60;;;0.73;;
44508;SDS011;30214;52.246;14.408;2022-12-31T05:51:54;1.70;;;0.70;;
44508;SDS011;30214;52.246;14.408;2022-12-31T05:54:21;1.52;;;0.73;;
44508;SDS011;30214;52.246;14.408;2022-12-31T05:56:48;1.33;;;0.70;;
44508;SDS011;30214;52.246;14.408;2022-12-31T05:59:15;1.52;;;0.70;;
44508;SDS011;30214;52.246;14.408;2022-12-31T06:01:42;1.25;;;0.70;;
44508;SDS011;30214;52.246;14.408;2022-12-31T06:04:11;2.47;;;1.00;;
44508;SDS011;30214;52.246;14.408;2022-12-31T06:06:39;1.60;;;0.90;;
44508;SDS011;30214;52.246;14.408;2022-12-31T06:09:06;2.55;;;0.98;;
44508;SDS011;30214;52.246;14.408;2022-12-31T06:11:33;1.98;;;0.90;;
44508;SDS011;30214;52.246;14.408;2022-12-31T06:14:00;2.67;;;0.90;;
44508;SDS011;30214;52.246;14.408;2022-12-31T06:16:27;2.20;;;1.00;;
44508;SDS011;30214;52.246;14.408;2022-12-31T06:18:55;2.28;;;1.00;;
44508;SDS011;30214;52.246;14.408;2022-12-31T06:21:23;3.85;;;0.80;;
44508;SDS011;30214;52.246;14.408;2022-12-31T06:23:50;1.90;;;0.90;;
44508;SDS011;30214;52.246;14.408;2022-12-31T06:26:17;2.17;;;1.00;;
44508;SDS011;30214;52.246;14.408;2022-12-31T06:28:44;2.55;;;1.08;;
44508;SDS011;30214;52.246;14.408;2022-12-31T06:31:14;2.63;;;0.98;;
44508;SDS011;30214;52.246;14.408;2022-12-31T06:33:41;1.58;;;0.80;;
44508;SDS011;30214;52.246;14.408;2022-12-31T06:36:12;2.33;;;0.90;;
44508;SDS011;30214;52.246;14.408;2022-12-31T06:38:42;1.98;;;1.00;;
44508;SDS011;30214;52.246;14.408;2022-12-31T06:41:10;3.67;;;1.00;;
44508;SDS011;30214;52.246;14.408;2022-12-31T06:43:39;1.90;;;0.90;;
44508;SDS011;30214;52.246;14.408;2022-12-31T06:46:08;1.40;;;0.80;;
44508;SDS011;30214;52.246;14.408;2022-12-31T06:48:37;2.63;;;1.05;;
44508;SDS011;30214;52.246;14.408;2022-12-31T06:51:08;1.67;;;0.90;;
44508;SDS011;30214;52.246;14.408;2022-12-31T06:53:37;1.90;;;1.00;;
44508;SDS011;30214;52.246;14.408;2022-12-31T06:56:07;1.88;;;1.05;;
44508;SDS011;30214;52.246;14.408;2022-12-31T06:58:39;1.77;;;0.90;;
44508;SDS011;30214;52.246;14.408;2022-12-31T07:01:11;2.20;;;1.00;;
44508;SDS011;30214;52.246;14.408;2022-12-31T07:03:55;1.88;;;0.95;;
44508;SDS011;30214;52.246;14.408;2022-12-31T07:06:32;4.68;;;1.15;;
44508;SDS011;30214;52.246;14.408;2022-12-31T07:09:11;1.45;;;0.80;;
44508;SDS011;30214;52.246;14.408;2022-12-31T07:14:35;2.22;;;1.10;;
44508;SDS011;30214;52.246;14.408;2022-12-31T07:17:07;3.65;;;1.10;;
44508;SDS011;30214;52.246;14.408;2022-12-31T07:19:47;1.70;;;0.82;;
44508;SDS011;30214;52.246;14.408;2022-12-31T07:22:24;1.73;;;0.82;;
44508;SDS011;30214;52.246;14.408;2022-12-31T07:24:52;1.90;;;1.00;;
44508;SDS011;30214;52.246;14.408;2022-12-31T07:27:31;1.80;;;0.88;;
44508;SDS011;30214;52.246;14.408;2022-12-31T07:30:08;2.65;;;0.90;;
44508;SDS011;30214;52.246;14.408;2022-12-31T07:32:42;1.92;;;0.77;;
44508;SDS011;30214;52.246;14.408;2022-12-31T07:35:32;2.72;;;0.90;;
44508;SDS011;30214;52.246;14.408;2022-12-31T07:38:11;1.77;;;0.90;;
44508;SDS011;30214;52.246;14.408;2022-12-31T07:41:02;2.33;;;0.90;;
44508;SDS011;30214;52.246;14.408;2022-12-31T07:43:41;1.63;;;0.80;;
44508;SDS011;30214;52.246;14.408;2022-12-31T07:46:24;1.38;;;0.80;;
44508;SDS011;30214;52.246;14.408;2022-12-31T07:48:57;1.55;;;0.90;;
44508;SDS011;30214;52.246;14.408;2022-12-31T07:51:25;1.70;;;0.80;;
44508;SDS011;30214;52.246;14.408;2022-12-31T07:53:53;1.88;;;0.80;;
44508;SDS011;30214;52.246;14.408;2022-12-31T07:56:20;1.50;;;0.85;;
44508;SDS011;30214;52.246;14.408;2022-12-31T07:58:51;1.42;;;0.70;;
44508;SDS011;30214;52.246;14.408;2022-12-31T08:01:29;1.45;;;0.70;;
44508;SDS011;30214;52.246;14.408;2022-12-31T08:04:04;1.42;;;0.70;;
44508;SDS011;30214;52.246;14.408;2022-12-31T08:06:40;2.33;;;0.68;;
44508;SDS011;30214;52.246;14.408;2022-12-31T08:09:21;1.15;;;0.60;;
44508;SDS011;30214;52.246;14.408;2022-12-31T08:11:59;0.65;;;0.47;;
44508;SDS011;30214;52.246;14.408;2022-12-31T08:14:29;1.33;;;0.55;;
44508;SDS011;30214;52.246;14.408;2022-12-31T08:16:58;0.80;;;0.50;;
44508;SDS011;30214;52.246;14.408;2022-12-31T08:19:26;1.58;;;0.63;;
44508;SDS011;30214;52.246;14.408;2022-12-31T08:22:05;0.98;;;0.60;;
44508;SDS011;30214;52.246;14.408;2022-12-31T08:25:03;3.40;;;0.70;;
44508;SDS011;30214;52.246;14.408;2022-12-31T08:27:41;2.15;;;0.57;;
44508;SDS011;30214;52.246;14.408;2022-12-31T08:30:21;2.33;;;0.60;;
44508;SDS011;30214;52.246;14.408;2022-12-31T08:32:54;1.25;;;0.50;;
44508;SDS011;30214;52.246;14.408;2022-12-31T08:35:45;0.80;;;0.55;;
44508;SDS011;30214;52.246;14.408;2022-12-31T08:38:30;1.52;;;0.57;;
44508;SDS011;30214;52.246;14.408;2022-12-31T08:41:08;2.38;;;0.80;;
44508;SDS011;30214;52.246;14.408;2022-12-31T08:43:47;2.00;;;0.77;;
44508;SDS011;30214;52.246;14.408;2022-12-31T08:46:28;1.58;;;0.77;;
44508;SDS011;30214;52.246;14.408;2022-12-31T08:49:06;1.65;;;0.90;;
44508;SDS011;30214;52.246;14.408;2022-12-31T08:51:35;1.15;;;0.60;;
44508;SDS011;30214;52.246;14.408;2022-12-31T08:54:03;1.58;;;0.70;;
44508;SDS011;30214;52.246;14.408;2022-12-31T08:56:31;2.22;;;0.70;;
44508;SDS011;30214;52.246;14.408;2022-12-31T08:59:08;1.38;;;0.55;;
44508;SDS011;30214;52.246;14.408;2022-12-31T09:02:00;0.82;;;0.60;;
44508;SDS011;30214;52.246;14.408;2022-12-31T09:05:02;1.00;;;0.50;;
44508;SDS011;30214;52.246;14.408;2022-12-31T09:07:37;1.83;;;0.80;;
44508;SDS011;30214;52.246;14.408;2022-12-31T09:10:10;0.77;;;0.50;;
44508;SDS011;30214;52.246;14.408;2022-12-31T09:12:46;0.60;;;0.40;;
44508;SDS011;30214;52.246;14.408;2022-12-31T09:15:24;0.88;;;0.52;;
44508;SDS011;30214;52.246;14.408;2022-12-31T09:18:00;0.82;;;0.47;;
44508;SDS011;30214;52.246;14.408;2022-12-31T09:20:29;3.25;;;0.57;;
44508;SDS011;30214;52.246;14.408;2022-12-31T09:23:01;1.10;;;0.60;;
44508;SDS011;30214;52.246;14.408;2022-12-31T09:25:29;0.60;;;0.47;;
44508;SDS011;30214;52.246;14.408;2022-12-31T09:28:02;2.47;;;0.60;;
44508;SDS011;30214;52.246;14.408;2022-12-31T09:30:44;1.80;;;0.70;;
44508;SDS011;30214;52.246;14.408;2022-12-31T09:33:32;2.63;;;0.50;;
44508;SDS011;30214;52.246;14.408;2022-12-31T09:36:07;0.88;;;0.50;;
44508;SDS011;30214;52.246;14.408;2022-12-31T09:38:42;1.40;;;0.70;;
44508;SDS011;30214;52.246;14.408;2022-12-31T09:41:22;2.25;;;0.57;;
44508;SDS011;30214;52.246;14.408;2022-12-31T09:44:51;0.88;;;0.50;;
44508;SDS011;30214;52.246;14.408;2022-12-31T09:48:18;2.77;;;0.60;;
44508;SDS011;30214;52.246;14.408;2022-12-31T09:51:30;2.53;;;0.73;;
44508;SDS011;30214;52.246;14.408;2022-12-31T09:54:11;2.00;;;0.73;;
44508;SDS011;30214;52.246;14.408;2022-12-31T09:56:58;2.95;;;0.70;;
44508;SDS011;30214;52.246;14.408;2022-12-31T09:59:55;1.58;;;0.70;;
44508;SDS011;30214;52.246;14.408;2022-12-31T10:02:51;1.10;;;0.50;;
44508;SDS011;30214;52.246;14.408;2022-12-31T10:05:44;1.30;;;0.57;;
44508;SDS011;30214;52.246;14.408;2022-12-31T10:08:43;4.05;;;0.75;;
44508;SDS011;30214;52.246;14.408;2022-12-31T10:11:31;2.65;;;0.65;;
44508;SDS011;30214;52.246;14.408;2022-12-31T10:14:18;2.15;;;0.73;;
44508;SDS011;30214;52.246;14.408;2022-12-31T10:17:10;2.38;;;0.70;;
44508;SDS011;30214;52.246;14.408;2022-12-31T10:25:55;1.52;;;0.80;;
44508;SDS011;30214;52.246;14.408;2022-12-31T10:28:58;2.30;;;0.52;;
44508;SDS011;30214;52.246;14.408;2022-12-31T10:31:38;1.88;;;0.70;;
44508;SDS011;30214;52.246;14.408;2022-12-31T10:34:13;2.47;;;0.90;;
44508;SDS011;30214;52.246;14.408;2022-12-31T10:36:51;1.80;;;0.70;;
44508;SDS011;30214;52.246;14.408;2022-12-31T10:39:25;3.92;;;1.08;;
44508;SDS011;30214;52.246;14.408;2022-12-31T10:42:18;2.55;;;0.65;;
44508;SDS011;30214;52.246;14.408;2022-12-31T10:45:29;1.65;;;0.70;;
44508;SDS011;30214;52.246;14.408;2022-12-31T10:51:27;2.92;;;0.80;;
44508;SDS011;30214;52.246;14.408;2022-12-31T10:54:32;2.95;;;0.80;;
44508;SDS011;30214;52.246;14.408;2022-12-31T10:57:29;1.30;;;0.60;;
44508;SDS011;30214;52.246;14.408;2022-12-31T11:00:36;3.50;;;0.70;;
44508;SDS011;30214;52.246;14.408;2022-12-31T11:03:39;2.80;;;0.70;;
44508;SDS011;30214;52.246;14.408;2022-12-31T11:13:25;1.90;;;0.95;;
44508;SDS011;30214;52.246;14.408;2022-12-31T11:16:30;1.83;;;0.80;;
44508;SDS011;30214;52.246;14.408;2022-12-31T11:19:09;1.80;;;0.70;;
44508;SDS011;30214;52.246;14.408;2022-12-31T11:21:52;2.00;;;0.80;;
44508;SDS011;30214;52.246;14.408;2022-12-31T11:24:39;2.30;;;0.90;;
44508;SDS011;30214;52.246;14.408;2022-12-31T11:27:31;1.73;;;0.80;;
44508;SDS011;30214;52.246;14.408;2022-12-31T11:30:18;1.83;;;0.80;;
44508;SDS011;30214;52.246;14.408;2022-12-31T11:32:53;2.05;;;0.80;;
44508;SDS011;30214;52.246;14.408;2022-12-31T11:35:41;1.98;;;0.77;;
44508;SDS011;30214;52.246;14.408;2022-12-31T11:38:27;2.05;;;0.70;;
44508;SDS011;30214;52.246;14.408;2022-12-31T11:40:59;1.77;;;0.73;;
44508;SDS011;30214;52.246;14.408;2022-12-31T11:43:33;2.85;;;0.73;;
44508;SDS011;30214;52.246;14.408;2022-12-31T11:49:28;1.77;;;0.77;;
44508;SDS011;30214;52.246;14.408;2022-12-31T11:52:25;3.63;;;0.80;;
44508;SDS011;30214;52.246;14.408;2022-12-31T11:58:13;1.80;;;0.80;;
44508;SDS011;30214;52.246;14.408;2022-12-31T12:00:50;2.20;;;0.80;;
44508;SDS011;30214;52.246;14.408;2022-12-31T12:03:22;2.63;;;0.90;;
44508;SDS011;30214;52.246;14.408;2022-12-31T12:05:49;1.20;;;0.68;;
44508;SDS011;30214;52.246;14.408;2022-12-31T12:08:17;3.55;;;0.90;;
44508;SDS011;30214;52.246;14.408;2022-12-31T12:10:46;2.70;;;0.90;;
44508;SDS011;30214;52.246;14.408;2022-12-31T12:13:20;3.75;;;0.70;;
44508;SDS011;30214;52.246;14.408;2022-12-31T12:15:51;4.03;;;0.80;;
44508;SDS011;30214;52.246;14.408;2022-12-31T12:18:24;3.13;;;0.73;;
44508;SDS011;30214;52.246;14.408;2022-12-31T12:21:05;2.25;;;0.80;;
44508;SDS011;30214;52.246;14.408;2022-12-31T12:23:35;2.45;;;0.82;;
44508;SDS011;30214;52.246;14.408;2022-12-31T12:26:04;2.40;;;0.93;;
44508;SDS011;30214;52.246;14.408;2022-12-31T12:28:40;4.28;;;0.70;;
44508;SDS011;30214;52.246;14.408;2022-12-31T12:31:18;1.73;;;0.82;;
44508;SDS011;30214;52.246;14.408;2022-12-31T12:33:48;2.80;;;0.88;;
44508;SDS011;30214;52.246;14.408;2022-12-31T12:36:17;2.10;;;0.70;;
44508;SDS011;30214;52.246;14.408;2022-12-31T12:38:46;3.80;;;0.70;;
44508;SDS011;30214;52.246;14.408;2022-12-31T12:41:18;2.80;;;0.80;;
44508;SDS011;30214;52.246;14.408;2022-12-31T12:43:49;3.15;;;0.70;;
44508;SDS011;30214;52.246;14.408;2022-12-31T12:46:31;2.20;;;0.77;;
44508;SDS011;30214;52.246;14.408;2022-12-31T12:48:59;1.40;;;0.60;;
44508;SDS011;30214;52.246;14.408;2022-12-31T12:54:35;3.05;;;1.00;;
44508;SDS011;30214;52.246;14.408;2022-12-31T12:57:22;2.72;;;0.70;;
44508;SDS011;30214;52.246;14.408;2022-12-31T13:00:00;2.25;;;0.90;;
44508;SDS011;30214;52.246;14.408;2022-12-31T13:02:47;2.10;;;0.73;;
44508;SDS011;30214;52.246;14.408;2022-12-31T13:05:36;1.88;;;0.70;;
44508;SDS011;30214;52.246;14.408;2022-12-31T13:08:15;2.58;;;0.60;;
44508;SDS011;30214;52.246;14.408;2022-12-31T13:11:05;3.45;;;0.80;;
44508;SDS011;30214;52.246;14.408;2022-12-31T13:13:48;3.10;;;0.80;;
44508;SDS011;30214;52.246;14.408;2022-12-31T13:16:25;2.63;;;0.70;;
44508;SDS011;30214;52.246;14.408;2022-12-31T13:19:04;4.40;;;0.85;;
44508;SDS011;30214;52.246;14.408;2022-12-31T13:21:42;3.20;;;0.73;;
44508;SDS011;30214;52.246;14.408;2022-12-31T13:24:25;3.60;;;0.80;;
44508;SDS011;30214;52.246;14.408;2022-12-31T13:27:13;3.17;;;0.70;;
44508;SDS011;30214;52.246;14.408;2022-12-31T13:29:46;2.83;;;0.90;;
44508;SDS011;30214;52.246;14.408;2022-12-31T13:32:15;3.53;;;0.90;;
44508;SDS011;30214;52.246;14.408;2022-12-31T13:34:48;1.60;;;0.75;;
44508;SDS011;30214;52.246;14.408;2022-12-31T13:37:23;1.60;;;0.80;;
44508;SDS011;30214;52.246;14.408;2022-12-31T13:39:58;2.28;;;0.80;;
44508;SDS011;30214;52.246;14.408;2022-12-31T13:42:35;3.60;;;0.85;;
44508;SDS011;30214;52.246;14.408;2022-12-31T13:45:09;3.45;;;0.80;;
44508;SDS011;30214;52.246;14.408;2022-12-31T13:47:43;3.00;;;0.90;;
44508;SDS011;30214;52.246;14.408;2022-12-31T13:50:18;2.30;;;1.00;;
44508;SDS011;30214;52.246;14.408;2022-12-31T13:52:52;2.30;;;0.90;;
44508;SDS011;30214;52.246;14.408;2022-12-31T13:55:24;2.92;;;0.68;;
44508;SDS011;30214;52.246;14.408;2022-12-31T13:57:56;1.73;;;0.98;;
44508;SDS011;30214;52.246;14.408;2022-12-31T14:00:32;2.90;;;0.80;;
44508;SDS011;30214;52.246;14.408;2022-12-31T14:03:05;3.90;;;0.85;;
44508;SDS011;30214;52.246;14.408;2022-12-31T14:05:40;2.03;;;0.75;;
44508;SDS011;30214;52.246;14.408;2022-12-31T14:08:14;3.80;;;0.95;;
44508;SDS011;30214;52.246;14.408;2022-12-31T14:10:46;1.83;;;0.68;;
44508;SDS011;30214;52.246;14.408;2022-12-31T14:13:28;2.22;;;0.70;;
44508;SDS011;30214;52.246;14.408;2022-12-31T14:16:10;2.95;;;0.95;;
44508;SDS011;30214;52.246;14.408;2022-12-31T14:18:49;1.90;;;0.80;;
44508;SDS011;30214;52.246;14.408;2022-12-31T14:21:33;1.65;;;0.70;;
44508;SDS011;30214;52.246;14.408;2022-12-31T14:24:10;2.97;;;0.95;;
44508;SDS011;30214;52.246;14.408;2022-12-31T14:26:44;3.00;;;0.88;;
44508;SDS011;30214;52.246;14.408;2022-12-31T14:29:19;1.85;;;0.85;;
44508;SDS011;30214;52.246;14.408;2022-12-31T14:32:01;4.70;;;0.93;;
44508;SDS011;30214;52.246;14.408;2022-12-31T14:34:49;3.25;;;0.68;;
44508;SDS011;30214;52.246;14.408;2022-12-31T14:37:29;4.70;;;1.38;;
44508;SDS011;30214;52.246;14.408;2022-12-31T14:40:11;1.85;;;0.80;;
44508;SDS011;30214;52.246;14.408;2022-12-31T14:42:48;2.60;;;0.70;;
44508;SDS011;30214;52.246;14.408;2022-12-31T14:45:37;1.88;;;0.80;;
44508;SDS011;30214;52.246;14.408;2022-12-31T14:48:19;2.78;;;1.00;;
44508;SDS011;30214;52.246;14.408;2022-12-31T14:50:57;1.88;;;0.70;;
44508;SDS011;30214;52.246;14.408;2022-12-31T14:53:32;2.30;;;0.75;;
44508;SDS011;30214;52.246;14.408;2022-12-31T14:55:59;1.60;;;0.73;;
44508;SDS011;30214;52.246;14.408;2022-12-31T14:58:30;3.17;;;0.77;;
44508;SDS011;30214;52.246;14.408;2022-12-31T15:01:00;1.95;;;0.80;;
44508;SDS011;30214;52.246;14.408;2022-12-31T15:03:34;2.70;;;0.70;;
44508;SDS011;30214;52.246;14.408;2022-12-31T15:09:07;2.08;;;0.80;;
44508;SDS011;30214;52.246;14.408;2022-12-31T15:12:05;3.47;;;1.00;;
44508;SDS011;30214;52.246;14.408;2022-12-31T15:14:57;1.13;;;0.70;;
44508;SDS011;30214;52.246;14.408;2022-12-31T15:17:39;2.15;;;0.80;;
44508;SDS011;30214;52.246;14.408;2022-12-31T15:20:24;4.22;;;1.02;;
44508;SDS011;30214;52.246;14.408;2022-12-31T15:23:11;3.15;;;1.00;;
44508;SDS011;30214;52.246;14.408;2022-12-31T15:25:46;1.92;;;0.90;;
44508;SDS011;30214;52.246;14.408;2022-12-31T15:28:25;3.47;;;0.95;;
44508;SDS011;30214;52.246;14.408;2022-12-31T15:31:00;2.97;;;1.00;;
44508;SDS011;30214;52.246;14.408;2022-12-31T15:33:35;4.72;;;1.00;;
44508;SDS011;30214;52.246;14.408;2022-12-31T15:36:10;3.03;;;0.80;;
44508;SDS011;30214;52.246;14.408;2022-12-31T15:38:42;1.40;;;0.80;;
44508;SDS011;30214;52.246;14.408;2022-12-31T15:41:15;4.05;;;0.90;;
44508;SDS011;30214;52.246;14.408;2022-12-31T15:43:55;3.45;;;0.90;;
44508;SDS011;30214;52.246;14.408;2022-12-31T15:46:35;3.58;;;1.00;;
44508;SDS011;30214;52.246;14.408;2022-12-31T15:49:07;1.90;;;1.00;;
44508;SDS011;30214;52.246;14.408;2022-12-31T15:51:43;1.80;;;0.80;;
44508;SDS011;30214;52.246;14.408;2022-12-31T15:54:20;2.05;;;0.82;;
44508;SDS011;30214;52.246;14.408;2022-12-31T15:56:54;1.95;;;0.80;;